createdAt,value
2023-03-22T00:25:00.887Z,100884.53
2023-03-22T00:27:27.467Z,100888.03
2023-03-22T00:29:54.117Z,100876.03
2023-03-22T00:32:21.558Z,100874.34
2023-03-22T00:34:48.258Z,100875.16
2023-03-22T00:37:16.546Z,100881.19
2023-03-22T00:39:43.232Z,100867.41
2023-03-22T00:42:10.556Z,100864.06
2023-03-22T00:44:37.145Z,100870.03
2023-03-22T00:47:05.187Z,100864.00
2023-03-22T00:49:31.737Z,100854.53
2023-03-22T00:51:58.375Z,100851.09
2023-03-22T00:54:25.013Z,100852.81
2023-03-22T00:56:51.525Z,100845.13
2023-03-22T00:59:18.080Z,100846.91
2023-03-22T01:01:44.670Z,100830.50
2023-03-22T01:04:18.120Z,100849.56
2023-03-22T01:06:45.025Z,100849.59
2023-03-22T01:09:14.899Z,100839.34
2023-03-22T01:11:44.781Z,100835.97
2023-03-22T01:14:13.883Z,100835.06
2023-03-22T01:16:40.599Z,100835.13
2023-03-22T01:19:08.006Z,100829.09
2023-03-22T01:21:34.550Z,100829.09
2023-03-22T01:24:01.062Z,100814.50
2023-03-22T01:26:27.595Z,100818.84
2023-03-22T01:28:54.150Z,100806.06
2023-03-22T01:31:20.864Z,100802.53
2023-03-22T01:33:47.514Z,100806.09
2023-03-22T01:36:14.102Z,100798.44
2023-03-22T01:38:40.966Z,100787.22
2023-03-22T01:41:07.663Z,100788.00
2023-03-22T01:43:34.236Z,100794.06
2023-03-22T01:46:01.002Z,100792.34
2023-03-22T01:48:37.677Z,100771.72
2023-03-22T01:51:09.919Z,100782.84
2023-03-22T01:53:52.741Z,100773.41
2023-03-22T01:56:23.632Z,100769.94
2023-03-22T01:58:51.715Z,100765.66
2023-03-22T02:01:18.469Z,100748.47
2023-03-22T02:04:10.214Z,100757.09
2023-03-22T02:06:38.411Z,100750.16
2023-03-22T02:09:06.575Z,100746.72
2023-03-22T02:11:42.828Z,100742.41
2023-03-22T02:14:23.477Z,100732.16
2023-03-22T02:17:09.147Z,100727.00
2023-03-22T02:19:48.630Z,100733.84
2023-03-22T02:22:28.148Z,100729.50
2023-03-22T02:25:17.630Z,100717.50
2023-03-22T02:28:08.796Z,100720.06
2023-03-22T02:31:14.722Z,100709.72
2023-03-22T02:34:15.685Z,100704.59
2023-03-22T02:37:00.521Z,100701.19
2023-03-22T02:39:49.198Z,100702.00
2023-03-22T02:42:18.431Z,100708.91
2023-03-22T02:44:59.441Z,100692.69
2023-03-22T02:47:49.230Z,100690.97
2023-03-22T02:50:22.629Z,100668.69
2023-03-22T02:52:53.219Z,100673.03
2023-03-22T02:55:31.952Z,100671.41
2023-03-22T02:58:03.251Z,100669.78
2023-03-22T03:00:31.665Z,100674.03
2023-03-22T03:03:11.319Z,100662.91
2023-03-22T03:05:44.873Z,100663.81
2023-03-22T03:08:14.302Z,100667.25
2023-03-22T03:10:42.218Z,100670.66
2023-03-22T03:13:13.774Z,100669.88
2023-03-22T03:15:45.172Z,100669.88
2023-03-22T03:18:51.319Z,100669.00
2023-03-22T03:21:30.025Z,100676.84
2023-03-22T03:24:21.573Z,100668.16
2023-03-22T03:27:14.609Z,100667.41
2023-03-22T03:30:03.046Z,100670.03
2023-03-22T03:32:38.381Z,100658.13
2023-03-22T03:35:23.012Z,100652.13
2023-03-22T03:37:54.142Z,100658.16
2023-03-22T03:40:27.101Z,100646.13
2023-03-22T03:42:56.810Z,100641.91
2023-03-22T03:45:23.861Z,100654.03
2023-03-22T03:47:57.047Z,100642.81
2023-03-22T03:50:25.651Z,100656.50
2023-03-22T03:52:53.903Z,100649.63
2023-03-22T03:55:22.029Z,100647.91
2023-03-22T03:57:48.612Z,100653.88
2023-03-22T04:00:15.672Z,100655.66
2023-03-22T04:02:43.012Z,100655.66
2023-03-22T04:05:11.557Z,100653.06
2023-03-22T04:07:38.806Z,100649.66
2023-03-22T04:10:06.257Z,100653.97
2023-03-22T04:12:33.791Z,100645.34
2023-03-22T04:15:00.403Z,100653.06
2023-03-22T04:17:29.120Z,100657.41
2023-03-22T04:19:58.986Z,100652.22
2023-03-22T04:22:26.389Z,100653.13
2023-03-22T04:24:52.913Z,100644.47
2023-03-22T04:27:22.138Z,100648.78
2023-03-22T04:29:48.733Z,100639.34
2023-03-22T04:32:18.899Z,100639.34
2023-03-22T04:34:46.508Z,100640.16
2023-03-22T04:37:14.204Z,100626.44
2023-03-22T04:39:41.183Z,100632.44
2023-03-22T04:42:08.225Z,100631.56
2023-03-22T04:44:35.361Z,100631.53
2023-03-22T04:47:01.948Z,100626.41
2023-03-22T04:49:28.867Z,100629.84
2023-03-22T04:51:56.446Z,100626.44
2023-03-22T04:54:24.043Z,100616.16
2023-03-22T04:56:50.910Z,100610.09
2023-03-22T04:59:20.312Z,100613.56
2023-03-22T05:01:51.528Z,100610.09
2023-03-22T05:04:19.358Z,100606.72
2023-03-22T05:06:47.061Z,100605.81
2023-03-22T05:09:13.651Z,100598.94
2023-03-22T05:11:40.791Z,100594.66
2023-03-22T05:14:09.211Z,100586.09
2023-03-22T05:16:36.144Z,100588.69
2023-03-22T05:19:03.078Z,100599.03
2023-03-22T05:21:36.766Z,100584.44
2023-03-22T05:24:03.976Z,100594.75
2023-03-22T05:26:30.668Z,100593.84
2023-03-22T05:28:57.255Z,100592.13
2023-03-22T05:31:23.970Z,100582.72
2023-03-22T05:33:53.438Z,100580.19
2023-03-22T05:36:22.830Z,100578.50
2023-03-22T05:38:49.905Z,100573.34
2023-03-22T05:41:16.415Z,100578.50
2023-03-22T05:43:42.925Z,100564.78
2023-03-22T05:46:11.852Z,100570.78
2023-03-22T05:48:39.579Z,100570.81
2023-03-22T05:51:07.834Z,100552.81
2023-03-22T05:53:34.656Z,100557.16
2023-03-22T05:56:02.016Z,100548.53
2023-03-22T05:58:30.803Z,100550.25
2023-03-22T06:01:08.172Z,100557.16
2023-03-22T06:03:35.245Z,100555.47
2023-03-22T06:06:02.648Z,100554.59
2023-03-22T06:08:29.274Z,100543.41
2023-03-22T06:10:55.941Z,100542.56
2023-03-22T06:13:22.554Z,100540.81
2023-03-22T06:15:49.187Z,100548.53
2023-03-22T06:18:15.877Z,100551.13
2023-03-22T06:20:42.726Z,100552.81
2023-03-22T06:23:09.818Z,100567.44
2023-03-22T06:25:36.478Z,100562.28
2023-03-22T06:28:03.761Z,100562.31
2023-03-22T06:30:30.458Z,100561.47
2023-03-22T06:33:00.533Z,100554.63
2023-03-22T06:35:27.927Z,100564.94
2023-03-22T06:37:54.520Z,100564.13
2023-03-22T06:40:21.093Z,100556.38
2023-03-22T06:42:47.773Z,100558.97
2023-03-22T06:45:16.525Z,100556.44
2023-03-22T06:47:43.981Z,100564.19
2023-03-22T06:50:11.301Z,100563.34
2023-03-22T06:52:37.993Z,100557.41
2023-03-22T06:55:04.993Z,100553.13
2023-03-22T06:57:31.600Z,100555.69
2023-03-22T06:59:58.272Z,100562.56
2023-03-22T07:02:24.888Z,100557.44
2023-03-22T07:04:51.447Z,100553.09
2023-03-22T07:07:18.036Z,100561.69
2023-03-22T07:09:44.590Z,100552.25
2023-03-22T07:12:11.197Z,100545.41
2023-03-22T07:14:38.160Z,100549.72
2023-03-22T07:17:04.784Z,100549.72
2023-03-22T07:19:31.966Z,100554.00
2023-03-22T07:21:58.590Z,100554.84
2023-03-22T07:24:25.245Z,100557.41
2023-03-22T07:26:51.774Z,100557.38
2023-03-22T07:29:18.594Z,100546.25
2023-03-22T07:31:45.884Z,100548.06
2023-03-22T07:34:12.733Z,100538.66
2023-03-22T07:36:39.277Z,100541.25
2023-03-22T07:39:06.436Z,100537.81
2023-03-22T07:41:33.247Z,100548.13
2023-03-22T07:44:15.237Z,100529.22
2023-03-22T07:46:43.852Z,100537.78
2023-03-22T07:49:10.873Z,100525.75
2023-03-22T07:51:37.496Z,100531.81
2023-03-22T07:54:06.406Z,100529.22
2023-03-22T07:56:34.033Z,100521.53
2023-03-22T07:59:00.615Z,100531.84
2023-03-22T08:01:27.271Z,100524.97
2023-03-22T08:03:53.849Z,100533.59
2023-03-22T08:06:21.653Z,100534.44
2023-03-22T08:08:48.224Z,100546.47
2023-03-22T08:11:14.828Z,100533.56
2023-03-22T08:13:41.772Z,100536.97
2023-03-22T08:16:08.654Z,100545.59
2023-03-22T08:18:35.492Z,100543.88
2023-03-22T08:21:02.029Z,100553.31
2023-03-22T08:23:38.809Z,100527.56
2023-03-22T08:26:07.433Z,100524.09
2023-03-22T08:28:33.955Z,100527.56
2023-03-22T08:31:00.599Z,100531.88
2023-03-22T08:34:19.613Z,100534.47
2023-03-22T08:36:46.448Z,100537.91
2023-03-22T08:39:13.647Z,100525.88
2023-03-22T08:41:40.317Z,100536.16
2023-03-22T08:44:09.691Z,100517.25
2023-03-22T08:50:27.841Z,100520.69
2023-03-22T08:52:54.416Z,100530.13
2023-03-22T08:55:21.007Z,100537.84
2023-03-22T08:57:50.381Z,100530.09
2023-03-22T09:00:18.105Z,100545.56
2023-03-22T09:02:44.769Z,100535.22
2023-03-22T09:05:13.508Z,100540.41
2023-03-22T09:07:40.314Z,100548.94
2023-03-22T09:10:08.273Z,100542.91
2023-03-22T09:12:34.821Z,100546.38
2023-03-22T09:15:01.444Z,100535.19
2023-03-22T09:17:28.116Z,100546.38
2023-03-22T09:20:09.408Z,100547.22
2023-03-22T09:22:38.407Z,100542.91
2023-03-22T09:25:05.309Z,100546.31
2023-03-22T09:27:31.850Z,100546.34
2023-03-22T09:29:58.458Z,100535.16
2023-03-22T09:32:25.028Z,100542.81
2023-03-22T09:34:51.582Z,100534.25
2023-03-22T09:37:19.740Z,100540.25
2023-03-22T09:39:46.489Z,100534.22
2023-03-22T09:42:37.753Z,100535.91
2023-03-22T09:45:07.458Z,100546.22
2023-03-22T09:47:47.255Z,100541.94
2023-03-22T09:50:23.582Z,100544.50
2023-03-22T09:52:50.980Z,100536.78
2023-03-22T09:55:41.760Z,100544.47
2023-03-22T09:58:17.740Z,100547.94
2023-03-22T10:00:49.581Z,100534.16
2023-03-22T10:04:08.939Z,100541.91
2023-03-22T10:06:35.647Z,100552.22
2023-03-22T10:09:26.359Z,100546.22
2023-03-22T10:12:05.150Z,100547.91
2023-03-22T10:14:37.869Z,100553.06
2023-03-22T10:17:09.925Z,100555.63
2023-03-22T10:19:59.121Z,100555.63
2023-03-22T10:22:30.946Z,100550.47
2023-03-22T10:24:59.164Z,100562.50
2023-03-22T10:27:28.758Z,100561.63
2023-03-22T10:30:20.653Z,100552.19
2023-03-22T10:33:01.713Z,100555.63
2023-03-22T10:35:29.627Z,100559.91
2023-03-22T10:38:00.531Z,100552.13
2023-03-22T10:40:32.556Z,100563.34
2023-03-22T10:43:08.249Z,100558.16
2023-03-22T10:45:36.196Z,100557.31
2023-03-22T10:48:07.937Z,100553.94
2023-03-22T10:50:41.760Z,100543.66
2023-03-22T10:53:20.634Z,100537.69
2023-03-22T10:55:47.220Z,100537.69
2023-03-22T10:58:16.641Z,100537.69
2023-03-22T11:00:54.472Z,100529.13
2023-03-22T11:03:31.948Z,100525.72
2023-03-22T11:06:06.338Z,100530.91
2023-03-22T11:08:41.928Z,100540.41
2023-03-22T11:11:17.067Z,100536.91
2023-03-22T11:13:49.414Z,100545.53
2023-03-22T11:16:18.159Z,100543.78
2023-03-22T11:18:44.822Z,100533.50
2023-03-22T11:21:14.704Z,100513.72
2023-03-22T11:23:46.296Z,100517.16
2023-03-22T11:26:14.282Z,100523.22
2023-03-22T11:28:50.262Z,100524.09
2023-03-22T11:31:18.897Z,100541.25
2023-03-22T11:33:57.616Z,100535.25
2023-03-22T11:36:25.360Z,100537.84
2023-03-22T11:39:00.935Z,100561.88
2023-03-22T11:41:35.125Z,100564.44
2023-03-22T11:44:05.184Z,100577.28
2023-03-22T11:46:33.307Z,100574.72
2023-03-22T11:49:12.016Z,100579.00
2023-03-22T11:51:39.981Z,100584.09
2023-03-22T11:54:28.461Z,100578.13
2023-03-22T11:56:58.316Z,100571.22
2023-03-22T11:59:27.823Z,100541.13
2023-03-22T12:02:05.092Z,100560.06
2023-03-22T12:04:36.193Z,100576.47
2023-03-22T12:07:11.300Z,100554.06
2023-03-22T12:09:52.030Z,100563.56
2023-03-22T12:12:27.191Z,100559.25
2023-03-22T12:15:02.818Z,100563.53
2023-03-22T12:17:41.579Z,100564.41
2023-03-22T12:20:38.145Z,100557.53
2023-03-22T12:23:14.414Z,100570.38
2023-03-22T12:25:46.260Z,100560.13
2023-03-22T12:28:18.292Z,100568.69
2023-03-22T12:30:58.482Z,100560.09
2023-03-22T12:33:29.282Z,100558.38
2023-03-22T12:35:59.132Z,100557.56
2023-03-22T12:38:34.004Z,100542.91
2023-03-22T12:41:04.944Z,100553.25
2023-03-22T12:43:58.796Z,100550.69
2023-03-22T12:46:29.806Z,100543.81
2023-03-22T12:49:03.740Z,100548.97
2023-03-22T12:51:30.321Z,100534.38
2023-03-22T12:54:00.389Z,100529.22
2023-03-22T12:56:36.479Z,100520.66
2023-03-22T12:59:06.541Z,100538.72
2023-03-22T13:01:54.680Z,100536.13
2023-03-22T13:04:36.305Z,100555.91
2023-03-22T13:07:11.350Z,100551.59
2023-03-22T13:09:40.569Z,100561.00
2023-03-22T13:12:16.661Z,100551.56
2023-03-22T13:14:52.359Z,100558.41
2023-03-22T13:17:41.190Z,100560.16
2023-03-22T13:20:08.023Z,100562.72
2023-03-22T13:22:37.760Z,100550.72
2023-03-22T13:25:29.092Z,100558.47
2023-03-22T13:28:04.185Z,100553.28
2023-03-22T13:30:52.459Z,100549.06
2023-03-22T13:33:36.953Z,100550.75
2023-03-22T13:36:09.008Z,100533.56
2023-03-22T13:38:42.767Z,100539.59
2023-03-22T13:41:30.063Z,100531.84
2023-03-22T13:44:02.361Z,100543.03
2023-03-22T13:46:38.214Z,100544.75
2023-03-22T13:49:51.373Z,100531.84
2023-03-22T13:52:33.838Z,100526.72
2023-03-22T13:55:00.628Z,100525.84
2023-03-22T13:57:56.820Z,100531.00
2023-03-22T14:00:29.487Z,100534.47
2023-03-22T14:03:02.032Z,100525.00
2023-03-22T14:05:32.207Z,100524.13
2023-03-22T14:08:00.705Z,100521.63
2023-03-22T14:10:31.217Z,100516.41
2023-03-22T14:13:19.051Z,100516.41
2023-03-22T14:15:50.558Z,100507.84
2023-03-22T14:18:23.363Z,100505.28
2023-03-22T14:20:55.001Z,100496.66
